sensor_id;sensor_type;location;lat;lon;timestamp;pressure;altitude;pressure_sealevel;temperature;humidity
62789;BME280;66401;42.016;21.454;2023-02-16T00:00:39;99689.13;;;4.23;55.68
62789;BME280;66401;42.016;21.454;2023-02-16T00:03:04;99683.75;;;4.26;55.50
62789;BME280;66401;42.016;21.454;2023-02-16T00:05:32;99685.41;;;4.27;55.74
62789;BME280;66401;42.016;21.454;2023-02-16T00:07:59;99689.13;;;4.23;55.54
62789;BME280;66401;42.016;21.454;2023-02-16T00:10:29;99685.84;;;4.21;56.07
62789;BME280;66401;42.016;21.454;2023-02-16T00:12:55;99685.28;;;4.29;54.49
62789;BME280;66401;42.016;21.454;2023-02-16T00:15:40;99690.06;;;4.11;56.62
62789;BME280;66401;42.016;21.454;2023-02-16T00:18:18;99683.97;;;4.23;55.87
62789;BME280;66401;42.016;21.454;2023-02-16T00:20:44;99674.47;;;4.24;54.86
62789;BME280;66401;42.016;21.454;2023-02-16T00:23:10;99670.63;;;4.18;55.10
62789;BME280;66401;42.016;21.454;2023-02-16T00:25:36;99689.38;;;4.20;55.30
62789;BME280;66401;42.016;21.454;2023-02-16T00:28:03;99681.88;;;4.17;55.03
62789;BME280;66401;42.016;21.454;2023-02-16T00:30:29;99678.94;;;4.11;56.49
62789;BME280;66401;42.016;21.454;2023-02-16T00:32:55;99671.63;;;4.05;54.40
62789;BME280;66401;42.016;21.454;2023-02-16T00:35:21;99671.19;;;3.99;56.28
62789;BME280;66401;42.016;21.454;2023-02-16T00:37:47;99672.38;;;4.07;54.85
62789;BME280;66401;42.016;21.454;2023-02-16T00:40:16;99671.75;;;4.03;54.27
62789;BME280;66401;42.016;21.454;2023-02-16T00:42:43;99675.88;;;4.06;55.01
62789;BME280;66401;42.016;21.454;2023-02-16T00:45:16;99671.75;;;4.03;55.15
62789;BME280;66401;42.016;21.454;2023-02-16T00:47:43;99674.69;;;3.98;54.87
62789;BME280;66401;42.016;21.454;2023-02-16T00:50:28;99664.72;;;3.94;55.51
62789;BME280;66401;42.016;21.454;2023-02-16T00:52:54;99668.47;;;3.79;55.62
62789;BME280;66401;42.016;21.454;2023-02-16T00:55:25;99654.41;;;3.83;55.74
62789;BME280;66401;42.016;21.454;2023-02-16T00:58:07;99665.44;;;3.96;56.17
62789;BME280;66401;42.016;21.454;2023-02-16T01:00:40;99658.28;;;3.88;55.52
62789;BME280;66401;42.016;21.454;2023-02-16T01:03:15;99657.69;;;3.85;55.30
62789;BME280;66401;42.016;21.454;2023-02-16T01:05:41;99646.22;;;3.78;55.79
62789;BME280;66401;42.016;21.454;2023-02-16T01:08:12;99651.34;;;3.78;56.05
62789;BME280;66401;42.016;21.454;2023-02-16T01:10:59;99651.09;;;3.69;55.85
62789;BME280;66401;42.016;21.454;2023-02-16T01:13:35;99650.41;;;3.67;55.18
62789;BME280;66401;42.016;21.454;2023-02-16T01:16:01;99649.31;;;3.59;55.48
62789;BME280;66401;42.016;21.454;2023-02-16T01:18:26;99651.09;;;3.69;54.84
62789;BME280;66401;42.016;21.454;2023-02-16T01:20:52;99649.66;;;3.54;56.36
62789;BME280;66401;42.016;21.454;2023-02-16T01:23:18;99648.00;;;3.53;55.67
62789;BME280;66401;42.016;21.454;2023-02-16T01:25:43;99642.72;;;3.43;56.11
62789;BME280;66401;42.016;21.454;2023-02-16T01:28:17;99641.19;;;3.41;56.90
62789;BME280;66401;42.016;21.454;2023-02-16T01:30:43;99648.25;;;3.50;55.01
62789;BME280;66401;42.016;21.454;2023-02-16T01:33:09;99640.78;;;3.58;55.95
62789;BME280;66401;42.016;21.454;2023-02-16T01:35:35;99622.34;;;3.40;56.19
62789;BME280;66401;42.016;21.454;2023-02-16T01:38:00;99642.03;;;3.53;55.20
62789;BME280;66401;42.016;21.454;2023-02-16T01:40:39;99633.22;;;3.44;55.95
62789;BME280;66401;42.016;21.454;2023-02-16T01:43:44;99641.66;;;3.46;55.02
62789;BME280;66401;42.016;21.454;2023-02-16T01:46:15;99640.50;;;3.39;55.67
62789;BME280;66401;42.016;21.454;2023-02-16T01:48:42;99633.78;;;3.36;56.54
62789;BME280;66401;42.016;21.454;2023-02-16T02:04:54;99644.13;;;3.12;57.58
62789;BME280;66401;42.016;21.454;2023-02-16T02:15:46;99635.56;;;2.88;57.41
62789;BME280;66401;42.016;21.454;2023-02-16T02:18:12;99648.44;;;2.88;57.52
62789;BME280;66401;42.016;21.454;2023-02-16T02:29:22;99647.56;;;2.76;58.67
62789;BME280;66401;42.016;21.454;2023-02-16T02:45:23;99635.09;;;2.83;58.08
62789;BME280;66401;42.016;21.454;2023-02-16T02:47:51;99626.69;;;2.81;57.95
62789;BME280;66401;42.016;21.454;2023-02-16T02:53:14;99632.41;;;2.61;57.54
62789;BME280;66401;42.016;21.454;2023-02-16T02:55:44;99621.06;;;2.63;56.80
62789;BME280;66401;42.016;21.454;2023-02-16T02:58:32;99638.16;;;2.64;58.30
62789;BME280;66401;42.016;21.454;2023-02-16T03:01:19;99636.06;;;2.69;57.57
62789;BME280;66401;42.016;21.454;2023-02-16T03:03:51;99633.81;;;2.65;57.29
62789;BME280;66401;42.016;21.454;2023-02-16T03:06:26;99641.44;;;2.66;58.57
62789;BME280;66401;42.016;21.454;2023-02-16T03:09:02;99634.41;;;2.81;57.86
62789;BME280;66401;42.016;21.454;2023-02-16T03:11:29;99645.63;;;2.67;57.99
62789;BME280;66401;42.016;21.454;2023-02-16T03:14:20;99647.16;;;2.70;58.20
62789;BME280;66401;42.016;21.454;2023-02-16T03:17:12;99630.75;;;2.59;58.74
62789;BME280;66401;42.016;21.454;2023-02-16T03:19:58;99642.47;;;2.64;59.15
62789;BME280;66401;42.016;21.454;2023-02-16T03:22:44;99644.75;;;2.55;59.22
62789;BME280;66401;42.016;21.454;2023-02-16T03:25:31;99641.84;;;2.60;59.18
62789;BME280;66401;42.016;21.454;2023-02-16T03:28:19;99642.69;;;2.61;58.39
62789;BME280;66401;42.016;21.454;2023-02-16T03:31:07;99641.25;;;2.56;58.42
62789;BME280;66401;42.016;21.454;2023-02-16T03:33:37;99649.47;;;2.62;58.27
62789;BME280;66401;42.016;21.454;2023-02-16T03:36:04;99636.09;;;2.56;58.80
62789;BME280;66401;42.016;21.454;2023-02-16T03:38:31;99638.03;;;2.66;57.94
62789;BME280;66401;42.016;21.454;2023-02-16T03:40:57;99641.13;;;2.71;57.87
62789;BME280;66401;42.016;21.454;2023-02-16T03:43:26;99646.16;;;2.59;58.93
62789;BME280;66401;42.016;21.454;2023-02-16T03:45:52;99634.19;;;2.47;58.82
62789;BME280;66401;42.016;21.454;2023-02-16T03:48:18;99634.41;;;2.44;59.02
62789;BME280;66401;42.016;21.454;2023-02-16T03:50:43;99611.66;;;2.38;58.43
62789;BME280;66401;42.016;21.454;2023-02-16T03:53:09;99621.56;;;2.32;59.65
62789;BME280;66401;42.016;21.454;2023-02-16T03:55:35;99625.75;;;2.45;59.31
62789;BME280;66401;42.016;21.454;2023-02-16T03:58:01;99622.00;;;2.25;60.23
62789;BME280;66401;42.016;21.454;2023-02-16T04:00:27;99635.16;;;2.34;59.48
62789;BME280;66401;42.016;21.454;2023-02-16T04:02:53;99634.31;;;2.33;59.81
62789;BME280;66401;42.016;21.454;2023-02-16T04:05:18;99629.59;;;2.27;59.47
62789;BME280;66401;42.016;21.454;2023-02-16T04:07:44;99623.41;;;2.29;58.86
62789;BME280;66401;42.016;21.454;2023-02-16T04:10:09;99625.19;;;2.16;59.02
62789;BME280;66401;42.016;21.454;2023-02-16T04:12:35;99623.03;;;2.23;59.55
62789;BME280;66401;42.016;21.454;2023-02-16T04:15:02;99590.34;;;1.99;58.99
62789;BME280;66401;42.016;21.454;2023-02-16T04:17:28;99620.16;;;2.15;59.74
62789;BME280;66401;42.016;21.454;2023-02-16T04:19:54;99626.22;;;2.14;58.91
62789;BME280;66401;42.016;21.454;2023-02-16T04:22:19;99616.13;;;2.11;59.45
62789;BME280;66401;42.016;21.454;2023-02-16T04:24:44;99625.91;;;2.18;59.99
62789;BME280;66401;42.016;21.454;2023-02-16T04:27:10;99620.28;;;2.13;59.79
62789;BME280;66401;42.016;21.454;2023-02-16T04:29:35;99620.16;;;2.15;59.89
62789;BME280;66401;42.016;21.454;2023-02-16T04:32:01;99634.03;;;2.25;58.69
62789;BME280;66401;42.016;21.454;2023-02-16T04:34:26;99631.66;;;2.22;58.26
62789;BME280;66401;42.016;21.454;2023-02-16T04:36:52;99641.44;;;2.17;59.11
62789;BME280;66401;42.016;21.454;2023-02-16T04:39:17;99604.94;;;2.12;58.43
62789;BME280;66401;42.016;21.454;2023-02-16T04:41:44;99625.59;;;2.23;58.89
62789;BME280;66401;42.016;21.454;2023-02-16T04:44:10;99633.72;;;2.17;58.65
62789;BME280;66401;42.016;21.454;2023-02-16T04:46:35;99635.38;;;2.18;58.84
62789;BME280;66401;42.016;21.454;2023-02-16T04:49:00;99636.91;;;2.20;58.24
62789;BME280;66401;42.016;21.454;2023-02-16T04:51:26;99636.59;;;2.25;58.53
62789;BME280;66401;42.016;21.454;2023-02-16T04:53:51;99638.75;;;2.18;58.42
62789;BME280;66401;42.016;21.454;2023-02-16T04:56:17;99642.59;;;2.13;58.87
62789;BME280;66401;42.016;21.454;2023-02-16T04:58:43;99637.13;;;2.17;59.09
62789;BME280;66401;42.016;21.454;2023-02-16T05:01:08;99639.91;;;2.14;58.75
62789;BME280;66401;42.016;21.454;2023-02-16T05:03:34;99640.31;;;2.08;58.78
62789;BME280;66401;42.016;21.454;2023-02-16T05:05:59;99637.72;;;2.21;57.57
62789;BME280;66401;42.016;21.454;2023-02-16T05:08:25;99643.47;;;2.12;58.23
62789;BME280;66401;42.016;21.454;2023-02-16T05:10:51;99641.34;;;2.06;58.67
62789;BME280;66401;42.016;21.454;2023-02-16T05:13:35;99638.97;;;2.03;58.05
62789;BME280;66401;42.016;21.454;2023-02-16T05:16:20;99645.25;;;1.98;58.42
62789;BME280;66401;42.016;21.454;2023-02-16T05:18:46;99653.50;;;2.04;59.35
62789;BME280;66401;42.016;21.454;2023-02-16T05:21:12;99656.06;;;2.04;58.31
62789;BME280;66401;42.016;21.454;2023-02-16T05:24:03;99654.50;;;2.01;59.23
62789;BME280;66401;42.016;21.454;2023-02-16T05:26:29;99648.97;;;1.94;59.30
62789;BME280;66401;42.016;21.454;2023-02-16T05:28:55;99651.22;;;1.86;59.46
62789;BME280;66401;42.016;21.454;2023-02-16T05:31:21;99641.56;;;1.77;60.57
62789;BME280;66401;42.016;21.454;2023-02-16T05:33:48;99642.81;;;1.84;59.47
62789;BME280;66401;42.016;21.454;2023-02-16T05:36:14;99644.44;;;1.85;60.02
62789;BME280;66401;42.016;21.454;2023-02-16T05:38:39;99654.91;;;1.82;60.61
62789;BME280;66401;42.016;21.454;2023-02-16T05:41:05;99661.28;;;1.89;60.60
62789;BME280;66401;42.016;21.454;2023-02-16T05:43:32;99668.50;;;1.84;59.49
62789;BME280;66401;42.016;21.454;2023-02-16T05:45:57;99663.25;;;1.86;59.39
62789;BME280;66401;42.016;21.454;2023-02-16T05:48:23;99636.59;;;1.61;58.73
62789;BME280;66401;42.016;21.454;2023-02-16T05:50:48;99637.25;;;1.65;59.32
62789;BME280;66401;42.016;21.454;2023-02-16T05:53:14;99670.75;;;1.76;59.13
62789;BME280;66401;42.016;21.454;2023-02-16T05:55:39;99669.91;;;1.88;59.79
62789;BME280;66401;42.016;21.454;2023-02-16T05:58:05;99679.25;;;1.89;59.34
62789;BME280;66401;42.016;21.454;2023-02-16T06:00:30;99678.34;;;1.90;59.41
62789;BME280;66401;42.016;21.454;2023-02-16T06:03:00;99689.34;;;1.92;59.68
62789;BME280;66401;42.016;21.454;2023-02-16T06:05:26;99689.75;;;1.99;58.78
62789;BME280;66401;42.016;21.454;2023-02-16T06:07:52;99677.72;;;1.87;58.96
62789;BME280;66401;42.016;21.454;2023-02-16T06:10:17;99689.72;;;1.73;59.78
62789;BME280;66401;42.016;21.454;2023-02-16T06:12:43;99674.63;;;1.82;58.84
62789;BME280;66401;42.016;21.454;2023-02-16T06:15:09;99685.75;;;1.95;58.77
62789;BME280;66401;42.016;21.454;2023-02-16T06:17:35;99698.50;;;1.96;58.84
62789;BME280;66401;42.016;21.454;2023-02-16T06:20:01;99693.97;;;2.00;58.52
62789;BME280;66401;42.016;21.454;2023-02-16T06:22:26;99696.13;;;2.06;59.07
62789;BME280;66401;42.016;21.454;2023-02-16T06:24:51;99692.03;;;2.04;58.41
62789;BME280;66401;42.016;21.454;2023-02-16T06:27:17;99702.59;;;2.12;58.74
62789;BME280;66401;42.016;21.454;2023-02-16T06:29:42;99698.09;;;2.15;57.84
62789;BME280;66401;42.016;21.454;2023-02-16T06:32:08;99702.63;;;2.24;58.22
62789;BME280;66401;42.016;21.454;2023-02-16T06:34:33;99702.41;;;2.27;58.94
62789;BME280;66401;42.016;21.454;2023-02-16T06:36:59;99696.22;;;2.30;58.62
62789;BME280;66401;42.016;21.454;2023-02-16T06:39:24;99705.69;;;2.42;58.74
62789;BME280;66401;42.016;21.454;2023-02-16T06:41:50;99706.09;;;2.36;58.35
62789;BME280;66401;42.016;21.454;2023-02-16T06:44:16;99700.31;;;2.45;57.83
62789;BME280;66401;42.016;21.454;2023-02-16T06:46:43;99705.06;;;2.51;58.34
62789;BME280;66401;42.016;21.454;2023-02-16T06:49:18;99701.75;;;2.62;57.97
62789;BME280;66401;42.016;21.454;2023-02-16T06:51:44;99689.81;;;2.48;58.11
62789;BME280;66401;42.016;21.454;2023-02-16T06:54:10;99705.06;;;2.51;59.81
62789;BME280;66401;42.016;21.454;2023-02-16T06:56:36;99702.34;;;2.66;59.04
62789;BME280;66401;42.016;21.454;2023-02-16T06:59:02;99706.34;;;2.70;58.78
62789;BME280;66401;42.016;21.454;2023-02-16T07:01:28;99691.38;;;2.87;57.86
62789;BME280;66401;42.016;21.454;2023-02-16T07:03:54;99703.13;;;2.92;58.26
62789;BME280;66401;42.016;21.454;2023-02-16T07:06:22;99699.78;;;3.02;58.11
62789;BME280;66401;42.016;21.454;2023-02-16T07:08:48;99699.31;;;3.08;57.91
62789;BME280;66401;42.016;21.454;2023-02-16T07:11:14;99702.78;;;2.96;58.75
62789;BME280;66401;42.016;21.454;2023-02-16T07:13:40;99689.03;;;2.84;60.18
62789;BME280;66401;42.016;21.454;2023-02-16T07:16:06;99689.34;;;2.80;59.48
62789;BME280;66401;42.016;21.454;2023-02-16T07:18:32;99675.13;;;2.87;58.65
62789;BME280;66401;42.016;21.454;2023-02-16T07:20:58;99694.41;;;3.05;58.47
62789;BME280;66401;42.016;21.454;2023-02-16T07:23:24;99685.38;;;3.24;59.28
62789;BME280;66401;42.016;21.454;2023-02-16T07:25:50;99687.06;;;3.36;57.90
62789;BME280;66401;42.016;21.454;2023-02-16T07:28:15;99695.16;;;3.42;58.00
62789;BME280;66401;42.016;21.454;2023-02-16T07:30:41;99694.03;;;3.23;58.91
62789;BME280;66401;42.016;21.454;2023-02-16T07:33:07;99681.09;;;3.11;59.67
62789;BME280;66401;42.016;21.454;2023-02-16T07:35:33;99700.69;;;3.25;59.53
62789;BME280;66401;42.016;21.454;2023-02-16T07:37:59;99697.34;;;3.36;58.52
62789;BME280;66401;42.016;21.454;2023-02-16T07:40:24;99701.16;;;3.54;57.94
62789;BME280;66401;42.016;21.454;2023-02-16T07:42:50;99701.03;;;3.91;56.68
62789;BME280;66401;42.016;21.454;2023-02-16T07:45:16;99695.00;;;4.59;55.08
62789;BME280;66401;42.016;21.454;2023-02-16T07:47:41;99687.19;;;5.04;53.34
62789;BME280;66401;42.016;21.454;2023-02-16T07:50:07;99686.72;;;5.63;53.67
62789;BME280;66401;42.016;21.454;2023-02-16T07:52:33;99696.66;;;6.60;50.24
62789;BME280;66401;42.016;21.454;2023-02-16T07:54:59;99694.56;;;7.24;48.16
62789;BME280;66401;42.016;21.454;2023-02-16T07:57:26;99693.28;;;8.05;44.98
62789;BME280;66401;42.016;21.454;2023-02-16T07:59:52;99702.63;;;8.72;43.88
62789;BME280;66401;42.016;21.454;2023-02-16T08:02:19;99706.19;;;9.34;43.11
62789;BME280;66401;42.016;21.454;2023-02-16T08:04:45;99699.97;;;9.45;41.78
62789;BME280;66401;42.016;21.454;2023-02-16T08:07:15;99707.94;;;10.13;40.55
62789;BME280;66401;42.016;21.454;2023-02-16T08:09:41;99703.03;;;10.28;39.97
62789;BME280;66401;42.016;21.454;2023-02-16T08:12:11;99707.28;;;10.63;38.90
62789;BME280;66401;42.016;21.454;2023-02-16T08:14:37;99694.72;;;11.17;38.31
62789;BME280;66401;42.016;21.454;2023-02-16T08:17:04;99697.88;;;11.78;36.86
62789;BME280;66401;42.016;21.454;2023-02-16T08:19:30;99696.53;;;11.73;37.53
62789;BME280;66401;42.016;21.454;2023-02-16T08:21:57;99684.19;;;12.47;35.72
62789;BME280;66401;42.016;21.454;2023-02-16T08:24:23;99695.41;;;13.26;34.52
62789;BME280;66401;42.016;21.454;2023-02-16T08:26:50;99693.06;;;13.31;34.67
62789;BME280;66401;42.016;21.454;2023-02-16T08:29:18;99685.84;;;12.79;35.33
62789;BME280;66401;42.016;21.454;2023-02-16T08:31:45;99692.22;;;14.29;32.78
62789;BME280;66401;42.016;21.454;2023-02-16T08:34:12;99667.50;;;14.82;31.00
62789;BME280;66401;42.016;21.454;2023-02-16T08:36:39;99690.81;;;15.28;30.55
62789;BME280;66401;42.016;21.454;2023-02-16T08:39:13;99694.75;;;15.03;31.18
62789;BME280;66401;42.016;21.454;2023-02-16T08:41:39;99680.00;;;16.15;30.19
62789;BME280;66401;42.016;21.454;2023-02-16T08:44:06;99689.25;;;16.80;28.36
62789;BME280;66401;42.016;21.454;2023-02-16T08:46:33;99679.91;;;16.71;27.91
62789;BME280;66401;42.016;21.454;2023-02-16T08:49:00;99680.91;;;16.01;30.08
62789;BME280;66401;42.016;21.454;2023-02-16T08:51:28;99684.31;;;17.19;28.58
62789;BME280;66401;42.016;21.454;2023-02-16T08:53:56;99670.91;;;16.59;28.49
62789;BME280;66401;42.016;21.454;2023-02-16T08:56:22;99677.81;;;17.34;27.75
62789;BME280;66401;42.016;21.454;2023-02-16T08:58:48;99677.63;;;18.09;27.08
62789;BME280;66401;42.016;21.454;2023-02-16T09:01:13;99675.41;;;17.53;27.67
62789;BME280;66401;42.016;21.454;2023-02-16T09:03:40;99672.38;;;17.49;27.97
62789;BME280;66401;42.016;21.454;2023-02-16T09:06:08;99671.28;;;18.29;26.49
62789;BME280;66401;42.016;21.454;2023-02-16T09:08:35;99675.03;;;19.43;24.63
62789;BME280;66401;42.016;21.454;2023-02-16T09:11:13;99671.00;;;19.65;24.77
62789;BME280;66401;42.016;21.454;2023-02-16T09:13:39;99668.50;;;19.45;25.29
62789;BME280;66401;42.016;21.454;2023-02-16T09:16:12;99665.66;;;20.34;23.71
62789;BME280;66401;42.016;21.454;2023-02-16T09:18:40;99669.25;;;21.06;22.98
62789;BME280;66401;42.016;21.454;2023-02-16T09:21:09;99663.22;;;19.95;24.37
62789;BME280;66401;42.016;21.454;2023-02-16T09:23:36;99673.25;;;20.67;23.36
62789;BME280;66401;42.016;21.454;2023-02-16T09:26:02;99668.13;;;19.92;23.52
62789;BME280;66401;42.016;21.454;2023-02-16T09:28:31;99657.09;;;20.86;23.34
62789;BME280;66401;42.016;21.454;2023-02-16T09:30:58;99658.22;;;20.42;24.26
62789;BME280;66401;42.016;21.454;2023-02-16T09:33:23;99651.75;;;21.47;22.75
62789;BME280;66401;42.016;21.454;2023-02-16T09:35:49;99654.13;;;22.53;21.60
62789;BME280;66401;42.016;21.454;2023-02-16T09:38:15;99653.47;;;21.99;21.71
62789;BME280;66401;42.016;21.454;2023-02-16T09:40:44;99651.44;;;22.02;21.79
62789;BME280;66401;42.016;21.454;2023-02-16T09:45:51;99635.94;;;22.34;21.18
62789;BME280;66401;42.016;21.454;2023-02-16T09:48:23;99645.16;;;24.39;20.25
62789;BME280;66401;42.016;21.454;2023-02-16T09:50:55;99644.56;;;24.15;19.46
62789;BME280;66401;42.016;21.454;2023-02-16T09:53:32;99644.34;;;24.39;19.55
62789;BME280;66401;42.016;21.454;2023-02-16T09:59:32;99637.72;;;24.41;19.57
62789;BME280;66401;42.016;21.454;2023-02-16T10:02:29;99642.34;;;24.07;20.06
62789;BME280;66401;42.016;21.454;2023-02-16T10:05:22;99628.72;;;24.69;18.26
62789;BME280;66401;42.016;21.454;2023-02-16T10:07:57;99629.72;;;25.17;18.45
62789;BME280;66401;42.016;21.454;2023-02-16T10:10:33;99619.25;;;22.90;20.49
62789;BME280;66401;42.016;21.454;2023-02-16T10:13:05;99613.84;;;24.30;19.21
62789;BME280;66401;42.016;21.454;2023-02-16T10:15:34;99614.75;;;24.13;19.93
62789;BME280;66401;42.016;21.454;2023-02-16T10:18:03;99595.66;;;24.21;19.82
62789;BME280;66401;42.016;21.454;2023-02-16T10:20:35;99611.03;;;26.44;16.97
62789;BME280;66401;42.016;21.454;2023-02-16T10:23:11;99592.88;;;24.55;18.74
62789;BME280;66401;42.016;21.454;2023-02-16T10:28:44;99598.50;;;26.55;17.19
62789;BME280;66401;42.016;21.454;2023-02-16T10:31:38;99593.19;;;26.65;17.10
62789;BME280;66401;42.016;21.454;2023-02-16T10:45:18;99572.13;;;27.04;16.20
62789;BME280;66401;42.016;21.454;2023-02-16T10:47:45;99572.34;;;26.87;16.78
62789;BME280;66401;42.016;21.454;2023-02-16T10:50:22;99560.56;;;26.47;17.28
62789;BME280;66401;42.016;21.454;2023-02-16T10:52:49;99556.84;;;26.69;16.15
62789;BME280;66401;42.016;21.454;2023-02-16T10:55:16;99556.94;;;24.84;17.93
62789;BME280;66401;42.016;21.454;2023-02-16T10:57:42;99544.19;;;22.54;20.17
62789;BME280;66401;42.016;21.454;2023-02-16T11:00:12;99542.31;;;23.51;20.48
62789;BME280;66401;42.016;21.454;2023-02-16T11:02:42;99546.00;;;25.13;18.31
62789;BME280;66401;42.016;21.454;2023-02-16T11:05:29;99541.97;;;26.05;17.37
62789;BME280;66401;42.016;21.454;2023-02-16T11:07:58;99533.00;;;25.27;18.11
62789;BME280;66401;42.016;21.454;2023-02-16T11:10:42;99527.47;;;25.33;18.46
62789;BME280;66401;42.016;21.454;2023-02-16T11:13:31;99523.28;;;26.05;18.21
62789;BME280;66401;42.016;21.454;2023-02-16T11:16:08;99526.31;;;24.11;19.01
62789;BME280;66401;42.016;21.454;2023-02-16T11:18:37;99523.13;;;24.09;19.17
62789;BME280;66401;42.016;21.454;2023-02-16T11:21:06;99518.34;;;23.12;20.41
62789;BME280;66401;42.016;21.454;2023-02-16T11:23:43;99505.44;;;24.47;19.44
62789;BME280;66401;42.016;21.454;2023-02-16T11:28:43;99501.00;;;24.90;18.09
62789;BME280;66401;42.016;21.454;2023-02-16T11:31:27;99498.78;;;26.34;16.87
62789;BME280;66401;42.016;21.454;2023-02-16T11:33:59;99483.81;;;25.55;17.63
62789;BME280;66401;42.016;21.454;2023-02-16T11:36:40;99487.03;;;25.52;18.02
62789;BME280;66401;42.016;21.454;2023-02-16T11:39:16;99482.31;;;25.69;17.17
62789;BME280;66401;42.016;21.454;2023-02-16T11:41:48;99476.66;;;25.65;17.47
62789;BME280;66401;42.016;21.454;2023-02-16T11:44:25;99469.97;;;25.58;17.42
62789;BME280;66401;42.016;21.454;2023-02-16T11:46:52;99477.47;;;26.54;16.71
62789;BME280;66401;42.016;21.454;2023-02-16T11:49:30;99475.47;;;27.51;16.04
62789;BME280;66401;42.016;21.454;2023-02-16T11:51:57;99469.53;;;25.24;17.19
62789;BME280;66401;42.016;21.454;2023-02-16T11:54:23;99459.56;;;26.55;17.22
62789;BME280;66401;42.016;21.454;2023-02-16T11:57:11;99455.63;;;25.69;17.54
62789;BME280;66401;42.016;21.454;2023-02-16T11:59:38;99445.97;;;25.58;17.97
62789;BME280;66401;42.016;21.454;2023-02-16T12:07:47;99438.09;;;25.88;17.68
62789;BME280;66401;42.016;21.454;2023-02-16T12:10:27;99433.53;;;25.21;18.08
62789;BME280;66401;42.016;21.454;2023-02-16T12:13:12;99436.88;;;23.83;18.84
62789;BME280;66401;42.016;21.454;2023-02-16T12:18:42;99416.44;;;23.23;19.64
62789;BME280;66401;42.016;21.454;2023-02-16T12:27:04;99405.34;;;22.71;20.08
62789;BME280;66401;42.016;21.454;2023-02-16T12:41:57;99372.03;;;21.56;21.73
62789;BME280;66401;42.016;21.454;2023-02-16T12:44:35;99360.97;;;20.72;21.69
62789;BME280;66401;42.016;21.454;2023-02-16T12:47:04;99370.84;;;21.11;21.79
62789;BME280;66401;42.016;21.454;2023-02-16T12:50:01;99367.00;;;19.84;22.65
62789;BME280;66401;42.016;21.454;2023-02-16T12:53:37;99354.47;;;19.31;24.13
62789;BME280;66401;42.016;21.454;2023-02-16T12:55:32;99352.72;;;19.06;23.63
62789;BME280;66401;42.016;21.454;2023-02-16T13:00:59;99351.88;;;19.42;23.21
62789;BME280;66401;42.016;21.454;2023-02-16T13:03:48;99354.66;;;19.29;23.14
62789;BME280;66401;42.016;21.454;2023-02-16T13:08:51;99345.66;;;19.19;23.42
62789;BME280;66401;42.016;21.454;2023-02-16T13:11:23;99342.25;;;19.30;23.70
62789;BME280;66401;42.016;21.454;2023-02-16T13:13:51;99336.13;;;18.99;23.72
62789;BME280;66401;42.016;21.454;2023-02-16T13:16:30;99347.84;;;18.67;24.41
62789;BME280;66401;42.016;21.454;2023-02-16T13:18:57;99338.41;;;18.27;25.16
62789;BME280;66401;42.016;21.454;2023-02-16T13:26:58;99336.22;;;18.43;23.71
62789;BME280;66401;42.016;21.454;2023-02-16T13:43:50;99324.97;;;17.79;25.89
62789;BME280;66401;42.016;21.454;2023-02-16T13:46:49;99318.81;;;17.85;25.80
62789;BME280;66401;42.016;21.454;2023-02-16T13:51:54;99322.06;;;17.87;25.79
62789;BME280;66401;42.016;21.454;2023-02-16T13:54:26;99326.47;;;17.55;25.57
62789;BME280;66401;42.016;21.454;2023-02-16T13:56:53;99324.50;;;16.99;26.12
62789;BME280;66401;42.016;21.454;2023-02-16T14:01:48;99316.03;;;16.77;27.56
62789;BME280;66401;42.016;21.454;2023-02-16T14:06:47;99315.63;;;16.80;27.08
62789;BME280;66401;42.016;21.454;2023-02-16T14:17:16;99284.91;;;16.48;28.09
62789;BME280;66401;42.016;21.454;2023-02-16T14:22:49;99313.44;;;16.51;27.92
62789;BME280;66401;42.016;21.454;2023-02-16T14:27:52;99317.25;;;16.48;28.04
62789;BME280;66401;42.016;21.454;2023-02-16T14:30:34;99304.31;;;16.47;28.01
62789;BME280;66401;42.016;21.454;2023-02-16T14:35:46;99295.63;;;16.40;27.59
62789;BME280;66401;42.016;21.454;2023-02-16T14:41:01;99294.22;;;16.30;27.42
62789;BME280;66401;42.016;21.454;2023-02-16T14:43:32;99286.94;;;16.19;26.77
62789;BME280;66401;42.016;21.454;2023-02-16T15:03:21;99286.75;;;15.20;28.17
62789;BME280;66401;42.016;21.454;2023-02-16T15:05:58;99299.63;;;15.08;29.92
62789;BME280;66401;42.016;21.454;2023-02-16T15:08:29;99300.41;;;15.02;28.48
62789;BME280;66401;42.016;21.454;2023-02-16T15:11:22;99302.38;;;14.87;29.06
62789;BME280;66401;42.016;21.454;2023-02-16T15:13:47;99293.03;;;14.84;30.75
62789;BME280;66401;42.016;21.454;2023-02-16T15:16:19;99290.22;;;14.79;30.11
62789;BME280;66401;42.016;21.454;2023-02-16T15:18:47;99294.53;;;14.66;29.11
62789;BME280;66401;42.016;21.454;2023-02-16T15:21:16;99293.28;;;14.55;29.91
62789;BME280;66401;42.016;21.454;2023-02-16T15:23:48;99271.72;;;14.31;30.37
62789;BME280;66401;42.016;21.454;2023-02-16T15:26:20;99285.84;;;14.37;30.34
62789;BME280;66401;42.016;21.454;2023-02-16T15:28:55;99299.88;;;14.23;31.90
62789;BME280;66401;42.016;21.454;2023-02-16T15:31:27;99297.41;;;14.15;31.53
62789;BME280;66401;42.016;21.454;2023-02-16T15:34:06;99302.81;;;14.13;32.50
62789;BME280;66401;42.016;21.454;2023-02-16T15:36:43;99301.75;;;14.08;32.26
62789;BME280;66401;42.016;21.454;2023-02-16T15:39:14;99300.22;;;13.92;31.87
62789;BME280;66401;42.016;21.454;2023-02-16T15:41:43;99298.44;;;13.71;33.28
62789;BME280;66401;42.016;21.454;2023-02-16T15:44:29;99293.19;;;13.71;33.36
62789;BME280;66401;42.016;21.454;2023-02-16T15:47:12;99298.53;;;13.63;33.12
62789;BME280;66401;42.016;21.454;2023-02-16T15:49:38;99301.28;;;13.55;33.15
62789;BME280;66401;42.016;21.454;2023-02-16T15:52:07;99304.69;;;13.55;33.69
62789;BME280;66401;42.016;21.454;2023-02-16T15:54:36;99302.00;;;13.49;33.40
62789;BME280;66401;42.016;21.454;2023-02-16T15:59:49;99300.25;;;13.34;34.03